sensor_id;sensor_type;location;lat;lon;timestamp;P1;durP1;ratioP1;P2;durP2;ratioP2
26822;SDS011;14852;51.910;8.878;2023-11-21T00:01:41;11.63;;;9.13;;
26822;SDS011;14852;51.910;8.878;2023-11-21T00:04:07;14.63;;;9.77;;
26822;SDS011;14852;51.910;8.878;2023-11-21T00:06:33;18.33;;;11.07;;
26822;SDS011;14852;51.910;8.878;2023-11-21T00:08:59;12.60;;;9.23;;
26822;SDS011;14852;51.910;8.878;2023-11-21T00:11:25;14.77;;;10.38;;
26822;SDS011;14852;51.910;8.878;2023-11-21T00:13:51;17.75;;;9.65;;
26822;SDS011;14852;51.910;8.878;2023-11-21T00:16:16;15.25;;;10.82;;
26822;SDS011;14852;51.910;8.878;2023-11-21T00:18:42;14.15;;;9.00;;
26822;SDS011;14852;51.910;8.878;2023-11-21T00:21:08;14.73;;;9.48;;
26822;SDS011;14852;51.910;8.878;2023-11-21T00:23:37;15.00;;;9.68;;
26822;SDS011;14852;51.910;8.878;2023-11-21T00:26:03;14.98;;;9.68;;
26822;SDS011;14852;51.910;8.878;2023-11-21T00:28:29;13.02;;;10.20;;
26822;SDS011;14852;51.910;8.878;2023-11-21T00:30:55;13.93;;;10.15;;
26822;SDS011;14852;51.910;8.878;2023-11-21T00:33:21;14.05;;;9.68;;
26822;SDS011;14852;51.910;8.878;2023-11-21T00:35:47;13.93;;;8.95;;
26822;SDS011;14852;51.910;8.878;2023-11-21T00:38:12;11.90;;;9.88;;
26822;SDS011;14852;51.910;8.878;2023-11-21T00:40:38;13.32;;;9.60;;
26822;SDS011;14852;51.910;8.878;2023-11-21T00:43:04;16.00;;;9.70;;
26822;SDS011;14852;51.910;8.878;2023-11-21T00:45:30;14.60;;;9.52;;
26822;SDS011;14852;51.910;8.878;2023-11-21T00:47:56;15.80;;;9.75;;
26822;SDS011;14852;51.910;8.878;2023-11-21T00:50:23;16.02;;;9.90;;
26822;SDS011;14852;51.910;8.878;2023-11-21T00:52:49;13.77;;;9.70;;
26822;SDS011;14852;51.910;8.878;2023-11-21T00:55:16;11.70;;;9.48;;
26822;SDS011;14852;51.910;8.878;2023-11-21T00:57:43;13.32;;;9.57;;
26822;SDS011;14852;51.910;8.878;2023-11-21T01:00:09;15.82;;;9.40;;
26822;SDS011;14852;51.910;8.878;2023-11-21T01:02:45;11.88;;;9.18;;
26822;SDS011;14852;51.910;8.878;2023-11-21T01:05:13;14.40;;;9.55;;
26822;SDS011;14852;51.910;8.878;2023-11-21T01:07:39;14.48;;;9.95;;
26822;SDS011;14852;51.910;8.878;2023-11-21T01:10:05;15.35;;;9.90;;
26822;SDS011;14852;51.910;8.878;2023-11-21T01:12:34;14.55;;;9.55;;
26822;SDS011;14852;51.910;8.878;2023-11-21T01:15:02;13.68;;;10.23;;
26822;SDS011;14852;51.910;8.878;2023-11-21T01:17:32;15.50;;;8.57;;
26822;SDS011;14852;51.910;8.878;2023-11-21T01:19:59;15.43;;;9.30;;
26822;SDS011;14852;51.910;8.878;2023-11-21T01:22:26;15.05;;;9.30;;
26822;SDS011;14852;51.910;8.878;2023-11-21T01:24:53;13.65;;;8.50;;
26822;SDS011;14852;51.910;8.878;2023-11-21T01:27:19;12.32;;;8.82;;
26822;SDS011;14852;51.910;8.878;2023-11-21T01:29:45;11.50;;;9.05;;
26822;SDS011;14852;51.910;8.878;2023-11-21T01:32:11;12.82;;;8.90;;
26822;SDS011;14852;51.910;8.878;2023-11-21T01:34:37;13.95;;;8.75;;
26822;SDS011;14852;51.910;8.878;2023-11-21T01:37:03;9.02;;;7.93;;
26822;SDS011;14852;51.910;8.878;2023-11-21T01:39:30;13.75;;;9.73;;
26822;SDS011;14852;51.910;8.878;2023-11-21T01:41:56;11.50;;;8.63;;
26822;SDS011;14852;51.910;8.878;2023-11-21T01:44:26;8.95;;;7.63;;
26822;SDS011;14852;51.910;8.878;2023-11-21T01:46:52;11.85;;;8.82;;
26822;SDS011;14852;51.910;8.878;2023-11-21T01:49:18;10.43;;;7.80;;
26822;SDS011;14852;51.910;8.878;2023-11-21T01:51:46;12.10;;;8.60;;
26822;SDS011;14852;51.910;8.878;2023-11-21T01:54:15;16.00;;;9.55;;
26822;SDS011;14852;51.910;8.878;2023-11-21T01:56:43;13.32;;;9.02;;
26822;SDS011;14852;51.910;8.878;2023-11-21T01:59:14;13.30;;;9.65;;
26822;SDS011;14852;51.910;8.878;2023-11-21T02:01:44;9.93;;;7.50;;
26822;SDS011;14852;51.910;8.878;2023-11-21T02:04:12;12.52;;;8.45;;
26822;SDS011;14852;51.910;8.878;2023-11-21T02:06:38;10.95;;;8.27;;
26822;SDS011;14852;51.910;8.878;2023-11-21T02:09:04;11.43;;;7.63;;
26822;SDS011;14852;51.910;8.878;2023-11-21T02:11:30;10.23;;;7.63;;
26822;SDS011;14852;51.910;8.878;2023-11-21T02:13:58;9.80;;;7.63;;
26822;SDS011;14852;51.910;8.878;2023-11-21T02:16:25;11.57;;;7.32;;
26822;SDS011;14852;51.910;8.878;2023-11-21T02:18:52;10.68;;;7.03;;
26822;SDS011;14852;51.910;8.878;2023-11-21T02:21:18;8.25;;;7.13;;
26822;SDS011;14852;51.910;8.878;2023-11-21T02:23:44;11.65;;;6.90;;
26822;SDS011;14852;51.910;8.878;2023-11-21T02:26:12;13.05;;;7.53;;
26822;SDS011;14852;51.910;8.878;2023-11-21T02:28:39;10.80;;;6.63;;
26822;SDS011;14852;51.910;8.878;2023-11-21T02:31:05;8.85;;;6.68;;
26822;SDS011;14852;51.910;8.878;2023-11-21T02:33:32;9.88;;;6.68;;
26822;SDS011;14852;51.910;8.878;2023-11-21T02:35:59;7.43;;;6.05;;
26822;SDS011;14852;51.910;8.878;2023-11-21T02:38:26;12.35;;;6.75;;
26822;SDS011;14852;51.910;8.878;2023-11-21T02:40:52;10.15;;;6.75;;
26822;SDS011;14852;51.910;8.878;2023-11-21T02:43:18;9.38;;;6.68;;
26822;SDS011;14852;51.910;8.878;2023-11-21T02:45:44;8.55;;;6.38;;
26822;SDS011;14852;51.910;8.878;2023-11-21T02:48:11;12.20;;;6.78;;
26822;SDS011;14852;51.910;8.878;2023-11-21T02:50:37;12.48;;;6.57;;
26822;SDS011;14852;51.910;8.878;2023-11-21T02:53:03;12.27;;;8.05;;
26822;SDS011;14852;51.910;8.878;2023-11-21T02:55:30;14.30;;;8.20;;
26822;SDS011;14852;51.910;8.878;2023-11-21T02:57:59;10.13;;;7.10;;
26822;SDS011;14852;51.910;8.878;2023-11-21T03:00:26;8.63;;;6.00;;
26822;SDS011;14852;51.910;8.878;2023-11-21T03:02:52;11.60;;;6.80;;
26822;SDS011;14852;51.910;8.878;2023-11-21T03:05:20;8.77;;;7.05;;
26822;SDS011;14852;51.910;8.878;2023-11-21T03:07:46;10.02;;;7.22;;
26822;SDS011;14852;51.910;8.878;2023-11-21T03:10:12;8.77;;;7.05;;
26822;SDS011;14852;51.910;8.878;2023-11-21T03:12:41;14.82;;;7.72;;
26822;SDS011;14852;51.910;8.878;2023-11-21T03:15:07;13.52;;;7.43;;
26822;SDS011;14852;51.910;8.878;2023-11-21T03:17:36;10.75;;;6.38;;
26822;SDS011;14852;51.910;8.878;2023-11-21T03:20:02;8.15;;;6.07;;
26822;SDS011;14852;51.910;8.878;2023-11-21T03:22:29;8.85;;;6.18;;
26822;SDS011;14852;51.910;8.878;2023-11-21T03:24:55;8.73;;;6.22;;
26822;SDS011;14852;51.910;8.878;2023-11-21T03:27:20;9.90;;;6.57;;
26822;SDS011;14852;51.910;8.878;2023-11-21T03:29:47;11.95;;;6.70;;
26822;SDS011;14852;51.910;8.878;2023-11-21T03:32:15;9.57;;;6.22;;
26822;SDS011;14852;51.910;8.878;2023-11-21T03:34:57;12.70;;;7.28;;
26822;SDS011;14852;51.910;8.878;2023-11-21T03:37:23;10.98;;;6.43;;
26822;SDS011;14852;51.910;8.878;2023-11-21T03:39:50;7.72;;;5.88;;
26822;SDS011;14852;51.910;8.878;2023-11-21T03:42:16;10.63;;;7.05;;
26822;SDS011;14852;51.910;8.878;2023-11-21T03:44:42;8.38;;;6.43;;
26822;SDS011;14852;51.910;8.878;2023-11-21T03:47:08;11.27;;;6.38;;
26822;SDS011;14852;51.910;8.878;2023-11-21T03:49:33;10.93;;;5.90;;
26822;SDS011;14852;51.910;8.878;2023-11-21T03:51:59;9.85;;;6.82;;
26822;SDS011;14852;51.910;8.878;2023-11-21T03:54:25;7.70;;;6.32;;
26822;SDS011;14852;51.910;8.878;2023-11-21T03:56:51;7.80;;;6.45;;
26822;SDS011;14852;51.910;8.878;2023-11-21T03:59:17;10.57;;;6.93;;
26822;SDS011;14852;51.910;8.878;2023-11-21T04:01:43;10.43;;;5.82;;
26822;SDS011;14852;51.910;8.878;2023-11-21T04:04:08;8.43;;;5.93;;
26822;SDS011;14852;51.910;8.878;2023-11-21T04:06:34;11.13;;;7.07;;
26822;SDS011;14852;51.910;8.878;2023-11-21T04:09:01;12.88;;;7.20;;
26822;SDS011;14852;51.910;8.878;2023-11-21T04:11:29;17.83;;;6.28;;
26822;SDS011;14852;51.910;8.878;2023-11-21T04:13:55;6.22;;;5.18;;
26822;SDS011;14852;51.910;8.878;2023-11-21T04:16:21;9.98;;;7.05;;
26822;SDS011;14852;51.910;8.878;2023-11-21T04:18:47;9.80;;;6.43;;
26822;SDS011;14852;51.910;8.878;2023-11-21T04:21:13;9.82;;;6.80;;
26822;SDS011;14852;51.910;8.878;2023-11-21T04:23:39;8.93;;;6.03;;
26822;SDS011;14852;51.910;8.878;2023-11-21T04:26:05;9.85;;;7.00;;
26822;SDS011;14852;51.910;8.878;2023-11-21T04:28:31;9.38;;;6.53;;
26822;SDS011;14852;51.910;8.878;2023-11-21T04:30:57;9.50;;;6.93;;
26822;SDS011;14852;51.910;8.878;2023-11-21T04:33:23;9.98;;;6.93;;
26822;SDS011;14852;51.910;8.878;2023-11-21T04:35:50;9.07;;;6.70;;
26822;SDS011;14852;51.910;8.878;2023-11-21T04:38:16;8.85;;;6.63;;
26822;SDS011;14852;51.910;8.878;2023-11-21T04:40:42;11.23;;;6.55;;
26822;SDS011;14852;51.910;8.878;2023-11-21T04:43:08;11.95;;;7.28;;
26822;SDS011;14852;51.910;8.878;2023-11-21T04:45:34;8.90;;;6.75;;
26822;SDS011;14852;51.910;8.878;2023-11-21T04:48:00;10.88;;;6.93;;
26822;SDS011;14852;51.910;8.878;2023-11-21T04:50:25;10.48;;;6.85;;
26822;SDS011;14852;51.910;8.878;2023-11-21T04:52:52;8.82;;;7.32;;
26822;SDS011;14852;51.910;8.878;2023-11-21T04:55:29;11.60;;;8.07;;
26822;SDS011;14852;51.910;8.878;2023-11-21T04:57:55;11.77;;;7.88;;
26822;SDS011;14852;51.910;8.878;2023-11-21T05:00:21;12.07;;;7.13;;
26822;SDS011;14852;51.910;8.878;2023-11-21T05:02:47;7.53;;;6.30;;
26822;SDS011;14852;51.910;8.878;2023-11-21T05:05:13;9.63;;;7.32;;
26822;SDS011;14852;51.910;8.878;2023-11-21T05:07:40;9.27;;;7.45;;
26822;SDS011;14852;51.910;8.878;2023-11-21T05:10:06;10.35;;;7.22;;
26822;SDS011;14852;51.910;8.878;2023-11-21T05:12:36;9.38;;;6.57;;
26822;SDS011;14852;51.910;8.878;2023-11-21T05:15:06;12.27;;;7.57;;
26822;SDS011;14852;51.910;8.878;2023-11-21T05:17:35;9.15;;;7.05;;
26822;SDS011;14852;51.910;8.878;2023-11-21T05:20:07;11.00;;;7.28;;
26822;SDS011;14852;51.910;8.878;2023-11-21T05:22:35;7.90;;;6.60;;
26822;SDS011;14852;51.910;8.878;2023-11-21T05:25:01;8.32;;;6.30;;
26822;SDS011;14852;51.910;8.878;2023-11-21T05:27:31;9.90;;;7.05;;
26822;SDS011;14852;51.910;8.878;2023-11-21T05:30:03;10.98;;;7.75;;
26822;SDS011;14852;51.910;8.878;2023-11-21T05:32:31;15.82;;;8.13;;
26822;SDS011;14852;51.910;8.878;2023-11-21T05:34:58;12.20;;;7.60;;
26822;SDS011;14852;51.910;8.878;2023-11-21T05:37:24;11.10;;;7.47;;
26822;SDS011;14852;51.910;8.878;2023-11-21T05:39:52;18.15;;;8.63;;
26822;SDS011;14852;51.910;8.878;2023-11-21T05:42:21;11.35;;;7.22;;
26822;SDS011;14852;51.910;8.878;2023-11-21T05:44:48;10.18;;;7.50;;
26822;SDS011;14852;51.910;8.878;2023-11-21T05:47:14;12.25;;;8.20;;
26822;SDS011;14852;51.910;8.878;2023-11-21T05:49:40;13.00;;;8.23;;
26822;SDS011;14852;51.910;8.878;2023-11-21T05:52:06;14.38;;;9.00;;
26822;SDS011;14852;51.910;8.878;2023-11-21T05:54:32;10.65;;;8.43;;
26822;SDS011;14852;51.910;8.878;2023-11-21T05:56:58;14.45;;;8.85;;
26822;SDS011;14852;51.910;8.878;2023-11-21T05:59:24;15.82;;;8.35;;
26822;SDS011;14852;51.910;8.878;2023-11-21T06:01:50;14.07;;;8.80;;
26822;SDS011;14852;51.910;8.878;2023-11-21T06:04:17;10.85;;;7.55;;
26822;SDS011;14852;51.910;8.878;2023-11-21T06:06:43;15.57;;;9.13;;
26822;SDS011;14852;51.910;8.878;2023-11-21T06:09:09;15.23;;;9.48;;
26822;SDS011;14852;51.910;8.878;2023-11-21T06:11:35;16.17;;;10.82;;
26822;SDS011;14852;51.910;8.878;2023-11-21T06:14:01;13.15;;;8.57;;
26822;SDS011;14852;51.910;8.878;2023-11-21T06:16:27;11.65;;;8.80;;
26822;SDS011;14852;51.910;8.878;2023-11-21T06:19:05;12.10;;;7.95;;
26822;SDS011;14852;51.910;8.878;2023-11-21T06:21:31;11.98;;;9.23;;
26822;SDS011;14852;51.910;8.878;2023-11-21T06:24:00;15.35;;;9.60;;
26822;SDS011;14852;51.910;8.878;2023-11-21T06:26:26;16.23;;;9.15;;
26822;SDS011;14852;51.910;8.878;2023-11-21T06:28:53;29.73;;;10.10;;
26822;SDS011;14852;51.910;8.878;2023-11-21T06:31:19;16.42;;;10.20;;
26822;SDS011;14852;51.910;8.878;2023-11-21T06:33:46;17.95;;;11.77;;
26822;SDS011;14852;51.910;8.878;2023-11-21T06:36:12;17.23;;;10.68;;
26822;SDS011;14852;51.910;8.878;2023-11-21T06:38:38;18.38;;;12.77;;
26822;SDS011;14852;51.910;8.878;2023-11-21T06:41:04;18.40;;;12.20;;
26822;SDS011;14852;51.910;8.878;2023-11-21T06:43:31;19.35;;;12.55;;
26822;SDS011;14852;51.910;8.878;2023-11-21T06:45:56;19.45;;;12.77;;
26822;SDS011;14852;51.910;8.878;2023-11-21T06:48:22;20.38;;;11.38;;
26822;SDS011;14852;51.910;8.878;2023-11-21T06:50:48;17.65;;;12.68;;
26822;SDS011;14852;51.910;8.878;2023-11-21T06:53:14;20.33;;;13.88;;
26822;SDS011;14852;51.910;8.878;2023-11-21T06:55:40;21.45;;;13.23;;
26822;SDS011;14852;51.910;8.878;2023-11-21T06:58:06;19.80;;;13.90;;
26822;SDS011;14852;51.910;8.878;2023-11-21T07:00:31;20.50;;;13.05;;
26822;SDS011;14852;51.910;8.878;2023-11-21T07:02:58;24.35;;;12.98;;
26822;SDS011;14852;51.910;8.878;2023-11-21T07:05:23;22.25;;;14.15;;
26822;SDS011;14852;51.910;8.878;2023-11-21T07:07:49;20.92;;;13.88;;
26822;SDS011;14852;51.910;8.878;2023-11-21T07:10:15;20.75;;;13.45;;
26822;SDS011;14852;51.910;8.878;2023-11-21T07:12:42;20.25;;;12.55;;
26822;SDS011;14852;51.910;8.878;2023-11-21T07:15:07;19.80;;;12.90;;
26822;SDS011;14852;51.910;8.878;2023-11-21T07:17:36;15.57;;;10.23;;
26822;SDS011;14852;51.910;8.878;2023-11-21T07:20:03;16.88;;;12.75;;
26822;SDS011;14852;51.910;8.878;2023-11-21T07:22:29;21.02;;;12.50;;
26822;SDS011;14852;51.910;8.878;2023-11-21T07:24:55;18.27;;;13.50;;
26822;SDS011;14852;51.910;8.878;2023-11-21T07:27:24;21.75;;;13.50;;
26822;SDS011;14852;51.910;8.878;2023-11-21T07:29:49;24.10;;;14.48;;
26822;SDS011;14852;51.910;8.878;2023-11-21T07:32:15;22.05;;;13.52;;
26822;SDS011;14852;51.910;8.878;2023-11-21T07:34:41;22.30;;;13.20;;
26822;SDS011;14852;51.910;8.878;2023-11-21T07:37:07;19.95;;;13.00;;
26822;SDS011;14852;51.910;8.878;2023-11-21T07:39:34;19.85;;;13.18;;
26822;SDS011;14852;51.910;8.878;2023-11-21T07:42:06;19.40;;;13.85;;
26822;SDS011;14852;51.910;8.878;2023-11-21T07:44:32;18.55;;;12.23;;
26822;SDS011;14852;51.910;8.878;2023-11-21T07:46:58;21.50;;;12.80;;
26822;SDS011;14852;51.910;8.878;2023-11-21T07:49:24;17.92;;;12.05;;
26822;SDS011;14852;51.910;8.878;2023-11-21T07:51:51;17.92;;;12.02;;
26822;SDS011;14852;51.910;8.878;2023-11-21T07:54:17;18.10;;;11.50;;
26822;SDS011;14852;51.910;8.878;2023-11-21T07:56:43;17.05;;;11.00;;
26822;SDS011;14852;51.910;8.878;2023-11-21T07:59:10;16.13;;;11.95;;
26822;SDS011;14852;51.910;8.878;2023-11-21T08:01:37;17.58;;;12.63;;
26822;SDS011;14852;51.910;8.878;2023-11-21T08:04:05;16.30;;;11.40;;
26822;SDS011;14852;51.910;8.878;2023-11-21T08:06:31;15.43;;;10.35;;
26822;SDS011;14852;51.910;8.878;2023-11-21T08:08:58;14.70;;;11.15;;
26822;SDS011;14852;51.910;8.878;2023-11-21T08:11:24;13.52;;;8.93;;
26822;SDS011;14852;51.910;8.878;2023-11-21T08:13:51;14.13;;;10.48;;
26822;SDS011;14852;51.910;8.878;2023-11-21T08:16:17;9.20;;;7.20;;
26822;SDS011;14852;51.910;8.878;2023-11-21T08:18:42;12.27;;;8.25;;
26822;SDS011;14852;51.910;8.878;2023-11-21T08:21:08;12.55;;;9.00;;
26822;SDS011;14852;51.910;8.878;2023-11-21T08:23:34;18.23;;;8.90;;
26822;SDS011;14852;51.910;8.878;2023-11-21T08:26:00;12.32;;;8.40;;
26822;SDS011;14852;51.910;8.878;2023-11-21T08:28:28;13.55;;;9.27;;
26822;SDS011;14852;51.910;8.878;2023-11-21T08:30:54;13.05;;;9.32;;
26822;SDS011;14852;51.910;8.878;2023-11-21T08:33:19;14.25;;;8.75;;
26822;SDS011;14852;51.910;8.878;2023-11-21T08:35:45;14.77;;;8.70;;
26822;SDS011;14852;51.910;8.878;2023-11-21T08:38:11;13.38;;;8.85;;
26822;SDS011;14852;51.910;8.878;2023-11-21T08:40:38;12.00;;;8.52;;
26822;SDS011;14852;51.910;8.878;2023-11-21T08:43:04;11.13;;;8.70;;
26822;SDS011;14852;51.910;8.878;2023-11-21T08:45:30;10.93;;;8.60;;
26822;SDS011;14852;51.910;8.878;2023-11-21T08:47:57;11.48;;;8.57;;
26822;SDS011;14852;51.910;8.878;2023-11-21T08:50:23;9.50;;;6.68;;
26822;SDS011;14852;51.910;8.878;2023-11-21T08:52:49;11.95;;;7.75;;
26822;SDS011;14852;51.910;8.878;2023-11-21T08:55:14;9.40;;;6.47;;
26822;SDS011;14852;51.910;8.878;2023-11-21T08:57:41;13.45;;;8.20;;
26822;SDS011;14852;51.910;8.878;2023-11-21T09:00:10;12.27;;;8.23;;
26822;SDS011;14852;51.910;8.878;2023-11-21T09:02:37;9.95;;;7.70;;
26822;SDS011;14852;51.910;8.878;2023-11-21T09:05:05;13.07;;;8.70;;
26822;SDS011;14852;51.910;8.878;2023-11-21T09:07:32;11.00;;;7.75;;
26822;SDS011;14852;51.910;8.878;2023-11-21T09:09:58;12.73;;;7.57;;
26822;SDS011;14852;51.910;8.878;2023-11-21T09:12:23;14.52;;;9.35;;
26822;SDS011;14852;51.910;8.878;2023-11-21T09:14:52;12.98;;;9.38;;
26822;SDS011;14852;51.910;8.878;2023-11-21T09:17:18;11.93;;;8.05;;
26822;SDS011;14852;51.910;8.878;2023-11-21T09:19:44;10.50;;;8.05;;
26822;SDS011;14852;51.910;8.878;2023-11-21T09:22:12;10.98;;;7.07;;
26822;SDS011;14852;51.910;8.878;2023-11-21T09:24:38;12.65;;;8.80;;
26822;SDS011;14852;51.910;8.878;2023-11-21T09:27:03;12.45;;;8.50;;
26822;SDS011;14852;51.910;8.878;2023-11-21T09:29:30;12.18;;;7.13;;
26822;SDS011;14852;51.910;8.878;2023-11-21T09:31:56;8.65;;;7.45;;
26822;SDS011;14852;51.910;8.878;2023-11-21T09:34:24;12.57;;;8.20;;
26822;SDS011;14852;51.910;8.878;2023-11-21T09:36:50;14.85;;;8.70;;
26822;SDS011;14852;51.910;8.878;2023-11-21T09:39:18;12.65;;;8.00;;
26822;SDS011;14852;51.910;8.878;2023-11-21T09:41:46;10.75;;;7.55;;
26822;SDS011;14852;51.910;8.878;2023-11-21T09:44:25;11.37;;;7.77;;
26822;SDS011;14852;51.910;8.878;2023-11-21T09:47:14;14.00;;;8.98;;
26822;SDS011;14852;51.910;8.878;2023-11-21T09:49:42;11.10;;;7.78;;
26822;SDS011;14852;51.910;8.878;2023-11-21T09:52:26;11.18;;;7.93;;
26822;SDS011;14852;51.910;8.878;2023-11-21T09:54:54;9.50;;;6.93;;
26822;SDS011;14852;51.910;8.878;2023-11-21T09:57:24;10.27;;;7.00;;
26822;SDS011;14852;51.910;8.878;2023-11-21T09:59:51;9.07;;;7.05;;
26822;SDS011;14852;51.910;8.878;2023-11-21T10:02:24;9.85;;;6.90;;
26822;SDS011;14852;51.910;8.878;2023-11-21T10:04:54;17.10;;;6.65;;
26822;SDS011;14852;51.910;8.878;2023-11-21T10:07:21;7.68;;;5.75;;
26822;SDS011;14852;51.910;8.878;2023-11-21T10:09:48;8.13;;;5.90;;
26822;SDS011;14852;51.910;8.878;2023-11-21T10:12:16;8.73;;;4.90;;
26822;SDS011;14852;51.910;8.878;2023-11-21T10:14:42;6.43;;;4.82;;
26822;SDS011;14852;51.910;8.878;2023-11-21T10:17:12;7.05;;;4.80;;
26822;SDS011;14852;51.910;8.878;2023-11-21T10:19:41;6.70;;;4.93;;
26822;SDS011;14852;51.910;8.878;2023-11-21T10:22:08;6.88;;;5.28;;
26822;SDS011;14852;51.910;8.878;2023-11-21T10:24:34;6.38;;;4.90;;
26822;SDS011;14852;51.910;8.878;2023-11-21T10:27:02;8.45;;;4.90;;
26822;SDS011;14852;51.910;8.878;2023-11-21T10:29:29;6.45;;;4.75;;
26822;SDS011;14852;51.910;8.878;2023-11-21T10:31:55;6.10;;;4.40;;
26822;SDS011;14852;51.910;8.878;2023-11-21T10:34:23;5.38;;;4.78;;
26822;SDS011;14852;51.910;8.878;2023-11-21T10:36:49;4.88;;;3.88;;
26822;SDS011;14852;51.910;8.878;2023-11-21T10:39:19;4.25;;;3.70;;
26822;SDS011;14852;51.910;8.878;2023-11-21T10:41:48;5.43;;;4.00;;
26822;SDS011;14852;51.910;8.878;2023-11-21T10:44:19;5.53;;;4.07;;
26822;SDS011;14852;51.910;8.878;2023-11-21T10:49:19;3.85;;;2.92;;
26822;SDS011;14852;51.910;8.878;2023-11-21T10:51:45;4.10;;;3.15;;
26822;SDS011;14852;51.910;8.878;2023-11-21T10:54:17;4.55;;;3.88;;
26822;SDS011;14852;51.910;8.878;2023-11-21T10:56:46;3.92;;;3.03;;
26822;SDS011;14852;51.910;8.878;2023-11-21T10:59:16;4.38;;;3.92;;
26822;SDS011;14852;51.910;8.878;2023-11-21T11:01:44;4.32;;;3.50;;
26822;SDS011;14852;51.910;8.878;2023-11-21T11:04:11;4.35;;;3.47;;
26822;SDS011;14852;51.910;8.878;2023-11-21T11:06:44;7.05;;;6.18;;
26822;SDS011;14852;51.910;8.878;2023-11-21T11:09:19;5.28;;;4.28;;
26822;SDS011;14852;51.910;8.878;2023-11-21T11:11:46;5.88;;;3.88;;
26822;SDS011;14852;51.910;8.878;2023-11-21T11:14:12;4.93;;;3.63;;
26822;SDS011;14852;51.910;8.878;2023-11-21T11:16:40;4.00;;;3.55;;
26822;SDS011;14852;51.910;8.878;2023-11-21T11:19:09;4.85;;;4.07;;
26822;SDS011;14852;51.910;8.878;2023-11-21T11:30:05;2.40;;;2.20;;
26822;SDS011;14852;51.910;8.878;2023-11-21T11:38:27;2.03;;;1.83;;
26822;SDS011;14852;51.910;8.878;2023-11-21T11:43:30;1.60;;;1.50;;
26822;SDS011;14852;51.910;8.878;2023-11-21T11:46:02;2.03;;;1.83;;
26822;SDS011;14852;51.910;8.878;2023-11-21T11:48:29;1.90;;;1.70;;
26822;SDS011;14852;51.910;8.878;2023-11-21T11:51:01;2.30;;;1.73;;
26822;SDS011;14852;51.910;8.878;2023-11-21T11:53:42;2.38;;;1.60;;
26822;SDS011;14852;51.910;8.878;2023-11-21T11:56:22;2.13;;;1.92;;
26822;SDS011;14852;51.910;8.878;2023-11-21T11:58:54;1.73;;;1.63;;
26822;SDS011;14852;51.910;8.878;2023-11-21T12:01:22;2.78;;;2.47;;
26822;SDS011;14852;51.910;8.878;2023-11-21T12:06:39;2.40;;;2.20;;
26822;SDS011;14852;51.910;8.878;2023-11-21T12:09:07;2.95;;;2.10;;
26822;SDS011;14852;51.910;8.878;2023-11-21T12:11:43;2.42;;;2.22;;
26822;SDS011;14852;51.910;8.878;2023-11-21T12:14:09;3.05;;;2.70;;
26822;SDS011;14852;51.910;8.878;2023-11-21T12:16:35;3.78;;;3.38;;
26822;SDS011;14852;51.910;8.878;2023-11-21T12:19:00;6.00;;;4.07;;
26822;SDS011;14852;51.910;8.878;2023-11-21T12:21:26;4.43;;;4.03;;
26822;SDS011;14852;51.910;8.878;2023-11-21T12:23:53;4.38;;;3.85;;
26822;SDS011;14852;51.910;8.878;2023-11-21T12:26:19;4.93;;;4.13;;
26822;SDS011;14852;51.910;8.878;2023-11-21T12:28:52;4.78;;;4.25;;
26822;SDS011;14852;51.910;8.878;2023-11-21T12:31:21;5.15;;;3.92;;
26822;SDS011;14852;51.910;8.878;2023-11-21T12:33:47;5.72;;;4.40;;
26822;SDS011;14852;51.910;8.878;2023-11-21T12:36:13;5.75;;;5.15;;
26822;SDS011;14852;51.910;8.878;2023-11-21T12:38:40;6.53;;;4.88;;
26822;SDS011;14852;51.910;8.878;2023-11-21T12:41:07;6.18;;;4.78;;
26822;SDS011;14852;51.910;8.878;2023-11-21T12:43:33;6.60;;;4.97;;
26822;SDS011;14852;51.910;8.878;2023-11-21T12:46:12;6.13;;;5.53;;
26822;SDS011;14852;51.910;8.878;2023-11-21T12:48:43;5.60;;;4.68;;
26822;SDS011;14852;51.910;8.878;2023-11-21T12:51:12;6.05;;;5.18;;
26822;SDS011;14852;51.910;8.878;2023-11-21T12:53:41;6.25;;;4.88;;
26822;SDS011;14852;51.910;8.878;2023-11-21T12:56:10;9.40;;;4.78;;
26822;SDS011;14852;51.910;8.878;2023-11-21T12:58:37;7.35;;;4.57;;
26822;SDS011;14852;51.910;8.878;2023-11-21T13:01:05;6.85;;;5.20;;
26822;SDS011;14852;51.910;8.878;2023-11-21T13:03:37;4.97;;;4.40;;
26822;SDS011;14852;51.910;8.878;2023-11-21T13:06:05;6.45;;;4.57;;
26822;SDS011;14852;51.910;8.878;2023-11-21T13:08:32;7.70;;;5.70;;
26822;SDS011;14852;51.910;8.878;2023-11-21T13:10:59;5.53;;;4.72;;
26822;SDS011;14852;51.910;8.878;2023-11-21T13:13:27;6.30;;;4.90;;
26822;SDS011;14852;51.910;8.878;2023-11-21T13:15:54;6.20;;;4.47;;
26822;SDS011;14852;51.910;8.878;2023-11-21T13:18:26;6.63;;;5.07;;
26822;SDS011;14852;51.910;8.878;2023-11-21T13:20:57;5.00;;;4.00;;
26822;SDS011;14852;51.910;8.878;2023-11-21T13:23:27;5.32;;;4.82;;
26822;SDS011;14852;51.910;8.878;2023-11-21T13:25:54;7.25;;;4.75;;
26822;SDS011;14852;51.910;8.878;2023-11-21T13:28:20;5.53;;;4.40;;
26822;SDS011;14852;51.910;8.878;2023-11-21T13:30:47;4.97;;;4.25;;
26822;SDS011;14852;51.910;8.878;2023-11-21T13:33:13;5.60;;;4.38;;
26822;SDS011;14852;51.910;8.878;2023-11-21T13:35:46;4.50;;;3.83;;
26822;SDS011;14852;51.910;8.878;2023-11-21T13:38:14;5.25;;;4.28;;
26822;SDS011;14852;51.910;8.878;2023-11-21T13:40:51;4.57;;;3.53;;
26822;SDS011;14852;51.910;8.878;2023-11-21T13:43:19;5.70;;;4.03;;
26822;SDS011;14852;51.910;8.878;2023-11-21T13:45:49;5.38;;;4.20;;
26822;SDS011;14852;51.910;8.878;2023-11-21T13:48:23;5.15;;;3.95;;
26822;SDS011;14852;51.910;8.878;2023-11-21T13:51:10;6.47;;;4.65;;
26822;SDS011;14852;51.910;8.878;2023-11-21T13:53:51;4.80;;;4.40;;
26822;SDS011;14852;51.910;8.878;2023-11-21T13:56:18;4.80;;;3.67;;
26822;SDS011;14852;51.910;8.878;2023-11-21T13:58:49;8.20;;;4.45;;
26822;SDS011;14852;51.910;8.878;2023-11-21T14:01:19;5.03;;;3.78;;
26822;SDS011;14852;51.910;8.878;2023-11-21T14:03:56;5.97;;;3.80;;
26822;SDS011;14852;51.910;8.878;2023-11-21T14:06:27;4.90;;;4.18;;
26822;SDS011;14852;51.910;8.878;2023-11-21T14:09:05;6.53;;;3.67;;
26822;SDS011;14852;51.910;8.878;2023-11-21T14:11:32;4.65;;;3.50;;
26822;SDS011;14852;51.910;8.878;2023-11-21T14:13:59;6.03;;;4.00;;
26822;SDS011;14852;51.910;8.878;2023-11-21T14:16:25;5.57;;;4.22;;
26822;SDS011;14852;51.910;8.878;2023-11-21T14:18:51;5.50;;;3.97;;
26822;SDS011;14852;51.910;8.878;2023-11-21T14:21:22;4.97;;;3.83;;
26822;SDS011;14852;51.910;8.878;2023-11-21T14:23:48;4.82;;;3.78;;
26822;SDS011;14852;51.910;8.878;2023-11-21T14:26:14;5.63;;;4.18;;
26822;SDS011;14852;51.910;8.878;2023-11-21T14:28:41;4.72;;;3.65;;
26822;SDS011;14852;51.910;8.878;2023-11-21T14:31:08;3.95;;;3.33;;
26822;SDS011;14852;51.910;8.878;2023-11-21T14:33:40;5.28;;;3.92;;
26822;SDS011;14852;51.910;8.878;2023-11-21T14:36:06;4.43;;;3.28;;
26822;SDS011;14852;51.910;8.878;2023-11-21T14:38:35;4.95;;;3.75;;
26822;SDS011;14852;51.910;8.878;2023-11-21T14:41:03;4.80;;;3.63;;
26822;SDS011;14852;51.910;8.878;2023-11-21T14:43:29;4.47;;;3.40;;
26822;SDS011;14852;51.910;8.878;2023-11-21T14:45:59;5.25;;;4.28;;
26822;SDS011;14852;51.910;8.878;2023-11-21T14:48:25;7.28;;;3.22;;
26822;SDS011;14852;51.910;8.878;2023-11-21T14:51:12;5.25;;;3.92;;
26822;SDS011;14852;51.910;8.878;2023-11-21T14:53:53;5.20;;;3.33;;
26822;SDS011;14852;51.910;8.878;2023-11-21T14:56:22;4.35;;;3.42;;
26822;SDS011;14852;51.910;8.878;2023-11-21T14:58:59;4.97;;;3.90;;
26822;SDS011;14852;51.910;8.878;2023-11-21T15:01:41;4.90;;;3.90;;
26822;SDS011;14852;51.910;8.878;2023-11-21T15:04:20;8.63;;;5.10;;